createdAt,value
2022-11-22T00:00:07.965Z,24.32
2022-11-22T00:02:36.580Z,24.32
2022-11-22T00:05:03.785Z,24.31
2022-11-22T00:07:30.847Z,24.31
2022-11-22T00:09:57.658Z,24.29
2022-11-22T00:12:24.475Z,24.29
2022-11-22T00:14:56.526Z,24.28
2022-11-22T00:17:23.831Z,24.28
2022-11-22T00:19:52.161Z,24.26
2022-11-22T00:22:18.987Z,24.26
2022-11-22T00:24:46.381Z,24.26
2022-11-22T00:27:13.236Z,24.23
2022-11-22T00:29:40.058Z,24.24
2022-11-22T00:32:06.852Z,24.24
2022-11-22T00:34:33.627Z,24.24
2022-11-22T00:37:01.850Z,24.22
2022-11-22T00:39:28.963Z,24.23
2022-11-22T00:41:56.094Z,24.21
2022-11-22T00:44:22.841Z,24.22
2022-11-22T00:46:49.616Z,24.20
2022-11-22T00:49:16.395Z,24.22
2022-11-22T00:51:43.310Z,24.22
2022-11-22T00:54:11.479Z,24.20
2022-11-22T00:56:39.040Z,24.20
2022-11-22T00:59:05.809Z,24.19
2022-11-22T01:01:32.634Z,24.18
2022-11-22T01:03:59.520Z,24.18
2022-11-22T01:06:26.378Z,24.18
2022-11-22T01:08:53.319Z,24.16
2022-11-22T01:11:21.480Z,24.16
2022-11-22T01:13:48.264Z,24.17
2022-11-22T01:16:15.448Z,24.18
2022-11-22T01:18:42.776Z,24.15
2022-11-22T01:21:09.740Z,24.16
2022-11-22T01:23:36.686Z,24.14
2022-11-22T01:26:03.736Z,24.13
2022-11-22T01:28:31.833Z,24.13
2022-11-22T01:30:58.647Z,24.13
2022-11-22T01:33:25.489Z,24.12
2022-11-22T01:35:52.332Z,24.12
2022-11-22T01:38:19.065Z,24.11
2022-11-22T01:40:46.055Z,24.12
2022-11-22T01:43:17.348Z,24.12
2022-11-22T01:45:48.866Z,24.12
2022-11-22T01:48:29.517Z,24.11
2022-11-22T01:51:01.569Z,24.10
2022-11-22T01:53:32.996Z,24.09
2022-11-22T01:56:00.903Z,24.09
2022-11-22T01:58:31.919Z,24.07
2022-11-22T02:01:00.824Z,24.07
2022-11-22T02:03:29.700Z,24.07
2022-11-22T02:05:57.050Z,24.07
2022-11-22T02:08:31.257Z,24.07
2022-11-22T02:11:01.652Z,24.07
2022-11-22T02:13:30.721Z,24.06
2022-11-22T02:15:58.870Z,24.06
2022-11-22T02:18:27.317Z,24.08
2022-11-22T02:20:54.978Z,24.05
2022-11-22T02:23:29.670Z,24.04
2022-11-22T02:25:59.785Z,24.06
2022-11-22T02:28:29.787Z,24.04
2022-11-22T02:30:56.695Z,24.05
2022-11-22T02:33:23.581Z,24.04
2022-11-22T02:35:50.647Z,24.03
2022-11-22T02:38:22.403Z,24.03
2022-11-22T02:40:53.270Z,24.04
2022-11-22T02:43:26.056Z,24.03
2022-11-22T02:45:52.847Z,24.03
2022-11-22T02:48:19.787Z,24.01
2022-11-22T02:50:47.143Z,24.02
2022-11-22T02:53:14.341Z,24.02
2022-11-22T02:55:41.146Z,24.00
2022-11-22T02:58:08.006Z,24.02
2022-11-22T03:00:38.327Z,24.03
2022-11-22T03:03:05.296Z,24.03
2022-11-22T03:05:32.291Z,24.00
2022-11-22T03:07:59.344Z,23.99
2022-11-22T03:10:26.409Z,24.00
2022-11-22T03:12:53.150Z,24.01
2022-11-22T03:15:20.091Z,24.00
2022-11-22T03:17:48.448Z,24.00
2022-11-22T03:20:15.534Z,24.00
2022-11-22T03:22:42.341Z,23.99
2022-11-22T03:25:09.529Z,23.97
2022-11-22T03:27:36.298Z,23.97
2022-11-22T03:30:03.672Z,23.98
2022-11-22T03:32:30.460Z,23.97
2022-11-22T03:35:01.795Z,23.96
2022-11-22T03:37:28.563Z,23.96
2022-11-22T03:39:55.370Z,23.97
2022-11-22T03:42:22.344Z,23.97
2022-11-22T03:44:49.691Z,23.95
2022-11-22T03:47:16.580Z,23.96
2022-11-22T03:49:43.378Z,23.96
2022-11-22T03:52:11.735Z,23.95
2022-11-22T03:54:38.505Z,23.96
2022-11-22T03:57:05.834Z,23.96
2022-11-22T03:59:32.835Z,23.95
2022-11-22T04:01:59.871Z,23.94
2022-11-22T04:04:26.646Z,23.95
2022-11-22T04:06:53.447Z,23.94
2022-11-22T04:09:21.763Z,23.93
2022-11-22T04:11:48.630Z,23.93
2022-11-22T04:14:34.292Z,23.94
2022-11-22T04:17:01.057Z,23.93
2022-11-22T04:19:28.113Z,23.92
2022-11-22T04:21:55.257Z,23.92
2022-11-22T04:24:42.421Z,23.92
2022-11-22T04:27:09.199Z,23.90
2022-11-22T04:29:36.142Z,23.89
2022-11-22T04:32:21.308Z,23.88
2022-11-22T04:34:48.061Z,23.88
2022-11-22T04:37:14.839Z,23.87
2022-11-22T04:39:43.064Z,23.90
2022-11-22T04:42:28.530Z,23.89
2022-11-22T04:44:56.470Z,23.89
2022-11-22T04:47:45.056Z,23.88
2022-11-22T04:50:34.568Z,23.87
2022-11-22T04:53:01.370Z,23.87
2022-11-22T04:55:29.465Z,23.87
2022-11-22T04:58:00.065Z,23.86
2022-11-22T05:00:27.894Z,23.85
2022-11-22T05:02:54.750Z,23.86
2022-11-22T05:05:21.611Z,23.87
2022-11-22T05:07:48.390Z,23.86
2022-11-22T05:10:15.566Z,23.86
2022-11-22T05:12:43.925Z,23.84
2022-11-22T05:15:11.784Z,23.84
2022-11-22T05:17:38.894Z,23.85
2022-11-22T05:20:07.947Z,23.84
2022-11-22T05:22:53.874Z,23.85
2022-11-22T05:25:25.244Z,23.86
2022-11-22T05:27:56.902Z,23.87
2022-11-22T05:30:23.674Z,23.86
2022-11-22T05:32:50.424Z,23.85
2022-11-22T05:35:17.218Z,23.84
2022-11-22T05:37:43.977Z,23.86
2022-11-22T05:40:12.034Z,23.90
2022-11-22T05:42:38.757Z,23.92
2022-11-22T05:45:08.309Z,23.97
2022-11-22T05:47:35.526Z,24.00
2022-11-22T05:50:02.336Z,24.04
2022-11-22T05:52:29.135Z,24.08
2022-11-22T05:54:55.919Z,24.12
2022-11-22T05:57:22.667Z,24.16
2022-11-22T05:59:49.464Z,24.21
2022-11-22T06:02:17.796Z,24.26
2022-11-22T06:04:44.690Z,24.32
2022-11-22T06:07:11.543Z,24.36
2022-11-22T06:09:38.381Z,24.42
2022-11-22T06:12:05.611Z,24.46
2022-11-22T06:14:32.493Z,24.51
2022-11-22T06:16:59.265Z,24.56
2022-11-22T06:19:27.510Z,24.61
2022-11-22T06:21:54.373Z,24.63
2022-11-22T06:24:21.102Z,24.67
2022-11-22T06:26:47.933Z,24.70
2022-11-22T06:29:14.958Z,24.74
2022-11-22T06:31:41.785Z,24.76
2022-11-22T06:34:08.603Z,24.78
2022-11-22T06:36:38.190Z,24.80
2022-11-22T06:39:05.288Z,24.81
2022-11-22T06:41:33.743Z,24.81
2022-11-22T06:44:04.915Z,24.83
2022-11-22T06:46:31.961Z,24.84
2022-11-22T06:48:58.711Z,24.84
2022-11-22T06:51:27.273Z,24.84
2022-11-22T06:53:56.509Z,24.80
2022-11-22T06:56:25.658Z,24.79
2022-11-22T06:58:53.967Z,24.78
2022-11-22T07:01:22.760Z,24.76
2022-11-22T07:03:50.541Z,24.74
2022-11-22T07:06:19.176Z,24.72
2022-11-22T07:08:46.527Z,24.71
2022-11-22T07:11:16.529Z,24.70
2022-11-22T07:13:43.719Z,24.65
2022-11-22T07:16:12.033Z,24.63
2022-11-22T07:18:39.644Z,24.63
2022-11-22T07:21:12.826Z,24.64
2022-11-22T07:23:41.930Z,24.64
2022-11-22T07:26:08.728Z,24.61
2022-11-22T07:28:37.601Z,24.60
2022-11-22T07:31:06.901Z,24.58
2022-11-22T07:33:34.279Z,24.56
2022-11-22T07:36:05.067Z,24.56
2022-11-22T07:38:31.837Z,24.54
2022-11-22T07:40:58.676Z,24.53
2022-11-22T07:43:25.448Z,24.51
2022-11-22T07:45:53.742Z,24.50
2022-11-22T07:48:21.078Z,24.48
2022-11-22T07:50:47.866Z,24.47
2022-11-22T07:53:14.615Z,24.45
2022-11-22T07:55:41.417Z,24.47
2022-11-22T07:58:08.142Z,24.50
2022-11-22T08:00:34.969Z,24.51
2022-11-22T08:03:03.139Z,24.52
2022-11-22T08:05:30.127Z,24.52
2022-11-22T08:07:57.005Z,24.53
2022-11-22T08:10:23.853Z,24.55
2022-11-22T08:12:50.651Z,24.56
2022-11-22T08:15:17.736Z,24.58
2022-11-22T08:17:44.507Z,24.58
2022-11-22T08:20:13.240Z,24.58
2022-11-22T08:22:40.948Z,24.61
2022-11-22T08:25:12.551Z,24.62
2022-11-22T08:27:40.292Z,24.61
2022-11-22T08:30:07.746Z,24.60
2022-11-22T08:32:34.791Z,24.60
2022-11-22T08:35:01.690Z,24.62
2022-11-22T08:37:29.807Z,24.61
2022-11-22T08:39:57.196Z,24.61
2022-11-22T08:42:24.204Z,24.63
2022-11-22T08:44:51.033Z,24.64
2022-11-22T08:47:17.823Z,24.65
2022-11-22T08:49:44.627Z,24.67
2022-11-22T08:52:11.552Z,24.66
2022-11-22T08:54:39.787Z,24.67
2022-11-22T08:57:06.590Z,24.66
2022-11-22T08:59:34.068Z,24.68
2022-11-22T09:02:01.071Z,24.67
2022-11-22T09:04:27.918Z,24.67
2022-11-22T09:09:42.865Z,24.66
2022-11-22T09:12:09.780Z,24.66
2022-11-22T09:14:36.603Z,24.66
2022-11-22T09:17:03.451Z,24.65
2022-11-22T09:19:30.477Z,24.66
2022-11-22T09:21:57.309Z,24.67
2022-11-22T09:24:24.136Z,24.67
2022-11-22T09:26:52.265Z,24.67
2022-11-22T09:29:19.026Z,24.65
2022-11-22T09:31:45.849Z,24.67
2022-11-22T09:34:12.613Z,24.69
2022-11-22T09:36:39.452Z,24.68
2022-11-22T09:39:06.257Z,24.68
2022-11-22T09:42:07.239Z,24.69
2022-11-22T09:45:01.613Z,24.67
2022-11-22T09:47:36.746Z,24.68
2022-11-22T09:50:13.627Z,24.68
2022-11-22T09:52:46.359Z,24.67
2022-11-22T09:55:24.397Z,24.67
2022-11-22T09:58:00.997Z,24.65
2022-11-22T10:00:29.481Z,24.63
2022-11-22T10:03:06.053Z,24.60
2022-11-22T10:05:41.614Z,24.59
2022-11-22T10:08:19.469Z,24.55
2022-11-22T10:10:50.351Z,24.55
2022-11-22T10:13:23.569Z,24.52
2022-11-22T10:15:56.262Z,24.48
2022-11-22T10:18:38.790Z,24.47
2022-11-22T10:21:10.262Z,24.44
2022-11-22T10:23:37.648Z,24.41
2022-11-22T10:26:13.135Z,24.41
2022-11-22T10:28:48.346Z,24.38
2022-11-22T10:31:18.935Z,24.34
2022-11-22T10:33:55.110Z,24.32
2022-11-22T10:36:33.442Z,24.33
2022-11-22T10:39:15.392Z,24.35
2022-11-22T10:41:54.503Z,24.35
2022-11-22T10:44:34.653Z,24.37
2022-11-22T10:47:14.782Z,24.37
2022-11-22T10:49:53.056Z,24.38
2022-11-22T10:52:32.786Z,24.38
2022-11-22T10:55:09.379Z,24.40
2022-11-22T10:57:42.852Z,24.41
2022-11-22T11:00:19.391Z,24.41
2022-11-22T11:03:14.691Z,24.42
2022-11-22T11:06:15.642Z,24.42
2022-11-22T11:09:03.119Z,24.41
2022-11-22T11:11:27.105Z,24.40
2022-11-22T11:13:56.733Z,24.38
2022-11-22T11:16:30.260Z,24.35
2022-11-22T11:19:02.618Z,24.35
2022-11-22T11:21:29.408Z,24.33
2022-11-22T11:23:56.267Z,24.30
2022-11-22T11:26:26.487Z,24.28
2022-11-22T11:29:39.707Z,24.26
2022-11-22T11:32:13.487Z,24.22
2022-11-22T11:34:43.271Z,24.22
2022-11-22T11:37:21.570Z,24.22
2022-11-22T11:39:48.473Z,24.19
2022-11-22T11:42:28.074Z,24.17
2022-11-22T11:45:15.271Z,24.18
2022-11-22T11:47:43.418Z,24.16
2022-11-22T11:50:23.797Z,24.14
2022-11-22T11:52:54.193Z,24.12
2022-11-22T11:55:21.281Z,24.14
2022-11-22T11:57:50.312Z,24.13
2022-11-22T12:00:25.731Z,24.15
2022-11-22T12:03:00.001Z,24.13
2022-11-22T12:05:29.891Z,24.12
2022-11-22T12:07:56.868Z,24.11
2022-11-22T12:10:34.577Z,24.10
2022-11-22T12:13:06.001Z,24.10
2022-11-22T12:15:39.211Z,24.08
2022-11-22T12:18:25.315Z,24.05
2022-11-22T12:21:00.516Z,24.02
2022-11-22T12:23:37.617Z,24.01
2022-11-22T12:26:05.130Z,24.01
2022-11-22T12:28:32.081Z,23.99
2022-11-22T12:31:07.334Z,24.01
2022-11-22T12:33:42.531Z,23.99
2022-11-22T12:36:16.198Z,24.00
2022-11-22T12:38:45.269Z,23.98
2022-11-22T12:41:17.158Z,23.96
2022-11-22T12:43:46.993Z,23.96
2022-11-22T12:46:18.643Z,23.97
2022-11-22T12:48:49.682Z,23.97
2022-11-22T12:51:24.887Z,23.97
2022-11-22T12:53:53.407Z,23.96
2022-11-22T12:56:32.805Z,24.00
2022-11-22T12:59:06.595Z,24.03
2022-11-22T13:01:39.525Z,24.05
2022-11-22T13:04:18.337Z,24.05
2022-11-22T13:06:52.622Z,24.07
2022-11-22T13:09:22.594Z,24.11
2022-11-22T13:11:55.470Z,24.11
2022-11-22T13:14:27.243Z,24.12
2022-11-22T13:16:54.197Z,24.15
2022-11-22T13:19:25.443Z,24.15
2022-11-22T13:22:08.168Z,24.14
2022-11-22T13:24:49.918Z,24.17
2022-11-22T13:27:22.435Z,24.20
2022-11-22T13:29:52.885Z,24.22
2022-11-22T13:32:23.617Z,24.23
2022-11-22T13:35:06.397Z,24.26
2022-11-22T13:37:38.194Z,24.27
2022-11-22T13:40:23.713Z,24.29
2022-11-22T13:43:23.596Z,24.31
2022-11-22T13:45:51.866Z,24.29
2022-11-22T13:48:49.808Z,24.32
2022-11-22T13:51:56.767Z,24.34
2022-11-22T13:54:58.599Z,24.35
2022-11-22T13:57:29.461Z,24.35
2022-11-22T14:00:44.789Z,24.36
2022-11-22T14:03:27.707Z,24.38
2022-11-22T14:05:57.626Z,24.38
2022-11-22T14:08:32.710Z,24.41
2022-11-22T14:11:16.254Z,24.43
2022-11-22T14:13:52.162Z,24.42
2022-11-22T14:16:30.095Z,24.45
2022-11-22T14:19:03.873Z,24.47
2022-11-22T14:22:03.700Z,24.48
2022-11-22T14:24:43.587Z,24.48
2022-11-22T14:27:23.655Z,24.49
2022-11-22T14:30:16.102Z,24.50
2022-11-22T14:32:53.948Z,24.52
2022-11-22T14:35:29.901Z,24.52
2022-11-22T14:38:02.788Z,24.51
2022-11-22T14:40:38.529Z,24.54
2022-11-22T14:43:22.078Z,24.54
2022-11-22T14:45:51.784Z,24.54
2022-11-22T14:48:20.408Z,24.55
2022-11-22T14:51:00.279Z,24.58
2022-11-22T14:53:33.183Z,24.59
2022-11-22T14:56:07.926Z,24.58
2022-11-22T14:58:38.946Z,24.59
2022-11-22T15:01:30.167Z,24.61
2022-11-22T15:09:11.521Z,24.63
2022-11-22T15:09:15.085Z,24.63
2022-11-22T15:10:46.763Z,24.62
2022-11-22T15:13:33.870Z,24.61
2022-11-22T15:57:27.127Z,24.66
2022-11-22T15:59:54.650Z,24.62
2022-11-22T16:02:24.132Z,24.63
2022-11-22T16:06:09.440Z,24.64
2022-11-22T16:07:45.652Z,24.63
2022-11-22T16:10:19.641Z,24.64
2022-11-22T16:12:46.749Z,24.68
2022-11-22T16:15:26.296Z,24.72
2022-11-22T16:17:59.673Z,24.73
2022-11-22T16:20:33.734Z,24.76
2022-11-22T16:23:20.001Z,24.77
2022-11-22T16:25:49.642Z,24.76
2022-11-22T16:28:29.457Z,24.78
2022-11-22T16:30:58.149Z,24.79
2022-11-22T16:33:25.218Z,24.80
2022-11-22T16:35:55.256Z,24.82
2022-11-22T16:38:23.369Z,24.84
2022-11-22T16:40:51.175Z,24.85
2022-11-22T16:43:20.441Z,24.86
2022-11-22T16:45:47.301Z,24.89
2022-11-22T16:48:31.465Z,24.93
2022-11-22T16:51:03.332Z,24.95
2022-11-22T16:53:38.129Z,24.99
2022-11-22T16:56:05.456Z,24.99
2022-11-22T16:58:32.249Z,25.01
2022-11-22T17:00:59.139Z,25.04
2022-11-22T17:03:29.720Z,25.04
2022-11-22T17:05:56.752Z,25.04
2022-11-22T17:08:24.871Z,25.04
2022-11-22T17:10:52.704Z,25.04
2022-11-22T17:13:22.125Z,25.04
2022-11-22T17:15:49.148Z,25.05
2022-11-22T17:18:17.127Z,25.04
2022-11-22T17:20:44.352Z,25.04
2022-11-22T17:23:20.432Z,25.04
2022-11-22T17:25:48.686Z,25.04
2022-11-22T17:28:15.640Z,25.04
2022-11-22T17:30:42.554Z,25.06
2022-11-22T17:33:09.835Z,25.06
2022-11-22T17:35:37.420Z,25.05
2022-11-22T17:38:04.449Z,25.06
2022-11-22T17:40:31.280Z,25.07
2022-11-22T17:43:00.322Z,25.06
2022-11-22T17:45:27.522Z,25.05
2022-11-22T17:47:54.387Z,25.04
2022-11-22T17:50:21.164Z,25.03
2022-11-22T17:52:48.086Z,25.00
2022-11-22T17:55:14.890Z,25.03
2022-11-22T17:57:42.298Z,25.01
2022-11-22T18:00:11.630Z,24.98
2022-11-22T18:02:38.418Z,25.02
2022-11-22T18:05:08.389Z,25.07
2022-11-22T18:07:35.460Z,25.04
2022-11-22T18:10:02.596Z,25.04
2022-11-22T18:12:29.412Z,25.04
2022-11-22T18:14:56.243Z,25.06
2022-11-22T18:17:24.390Z,25.04
2022-11-22T18:19:51.194Z,25.05
2022-11-22T18:22:19.042Z,25.08
2022-11-22T18:24:45.943Z,25.14
2022-11-22T18:27:12.802Z,25.11
2022-11-22T18:29:42.870Z,25.11
2022-11-22T18:32:10.148Z,25.14
2022-11-22T18:34:38.359Z,25.12
2022-11-22T18:37:05.370Z,25.09
2022-11-22T18:39:34.551Z,25.09
2022-11-22T18:42:01.906Z,25.08
2022-11-22T18:44:28.682Z,25.08
2022-11-22T18:46:55.641Z,25.09
2022-11-22T18:49:22.488Z,25.06
2022-11-22T18:51:50.707Z,25.05
2022-11-22T18:54:18.310Z,25.04
2022-11-22T18:56:45.171Z,25.03
2022-11-22T18:59:14.811Z,25.03
2022-11-22T19:01:41.807Z,25.03
2022-11-22T19:04:11.687Z,25.02
2022-11-22T19:06:38.492Z,25.02
2022-11-22T19:09:06.975Z,25.00
2022-11-22T19:11:33.853Z,24.99
2022-11-22T19:14:00.866Z,25.00
2022-11-22T19:16:29.651Z,24.98
2022-11-22T19:18:57.429Z,24.98
2022-11-22T19:21:26.690Z,24.97
2022-11-22T19:23:54.869Z,24.96
2022-11-22T19:26:24.738Z,24.94
2022-11-22T19:28:56.321Z,24.92
2022-11-22T19:31:25.977Z,24.92
2022-11-22T19:33:52.740Z,24.91
2022-11-22T19:36:21.595Z,24.90
2022-11-22T19:38:48.675Z,24.89
2022-11-22T19:41:17.137Z,24.91
2022-11-22T19:43:45.927Z,24.90
2022-11-22T19:46:13.180Z,24.90
2022-11-22T19:48:46.658Z,24.89
2022-11-22T19:51:15.061Z,24.89
2022-11-22T19:53:42.279Z,24.89
2022-11-22T19:56:13.713Z,24.87
2022-11-22T19:58:40.748Z,24.87
2022-11-22T20:01:10.243Z,24.82
2022-11-22T20:03:39.114Z,24.85
2022-11-22T20:06:07.419Z,24.85
2022-11-22T20:08:34.331Z,24.86
2022-11-22T20:11:02.282Z,24.84
2022-11-22T20:13:29.846Z,24.86
2022-11-22T20:15:57.042Z,24.86
2022-11-22T20:18:25.149Z,24.87
2022-11-22T20:20:51.973Z,24.88
2022-11-22T20:23:18.816Z,24.87
2022-11-22T20:25:45.670Z,24.88
2022-11-22T20:28:12.449Z,24.88
2022-11-22T20:30:39.246Z,24.87
2022-11-22T20:33:06.058Z,24.88
2022-11-22T20:35:34.147Z,24.88
2022-11-22T20:38:01.265Z,24.85
2022-11-22T20:40:28.304Z,24.84
2022-11-22T20:42:55.103Z,24.85
2022-11-22T20:45:21.948Z,24.85
2022-11-22T20:47:48.739Z,24.84
2022-11-22T20:50:16.339Z,24.82
2022-11-22T20:52:44.506Z,24.80
2022-11-22T20:55:11.800Z,24.81
2022-11-22T20:57:40.093Z,24.80
2022-11-22T21:00:08.286Z,24.77
2022-11-22T21:02:35.862Z,24.76
2022-11-22T21:05:02.679Z,24.76
2022-11-22T21:07:29.505Z,24.73
2022-11-22T21:09:57.626Z,24.72
2022-11-22T21:12:24.899Z,24.71
2022-11-22T21:14:53.860Z,24.70
2022-11-22T21:17:41.930Z,24.68
2022-11-22T21:20:08.366Z,24.66
2022-11-22T21:22:35.108Z,24.64
2022-11-22T21:25:03.771Z,24.64
2022-11-22T21:27:30.545Z,24.62
2022-11-22T21:29:57.370Z,24.59
2022-11-22T21:32:24.124Z,24.56
2022-11-22T21:34:51.018Z,24.55
2022-11-22T21:37:18.032Z,24.54
2022-11-22T21:39:45.480Z,24.51
2022-11-22T21:42:14.010Z,24.50
2022-11-22T21:44:40.791Z,24.46
2022-11-22T21:47:07.588Z,24.46
2022-11-22T21:49:34.440Z,24.44
2022-11-22T21:52:01.188Z,24.44
2022-11-22T21:54:28.061Z,24.42
2022-11-22T21:56:58.530Z,24.41
2022-11-22T21:59:30.948Z,24.38
2022-11-22T22:01:57.886Z,24.35
2022-11-22T22:04:24.698Z,24.37
2022-11-22T22:06:51.660Z,24.34
2022-11-22T22:09:18.529Z,24.34
2022-11-22T22:11:47.714Z,24.35
2022-11-22T22:14:14.990Z,24.31
2022-11-22T22:16:43.192Z,24.30
2022-11-22T22:19:10.316Z,24.30
2022-11-22T22:21:37.107Z,24.29
2022-11-22T22:24:04.428Z,24.28
2022-11-22T22:26:32.140Z,24.26
2022-11-22T22:28:58.896Z,24.25
2022-11-22T22:31:26.919Z,24.24
2022-11-22T22:33:56.537Z,24.23
2022-11-22T22:36:25.738Z,24.21
2022-11-22T22:38:53.323Z,24.21
2022-11-22T22:41:20.102Z,24.19
2022-11-22T22:43:48.926Z,24.19
2022-11-22T22:46:17.427Z,24.19
2022-11-22T22:48:44.525Z,24.17
2022-11-22T22:51:14.583Z,24.15
2022-11-22T22:53:42.173Z,24.13
2022-11-22T22:56:09.827Z,24.13
2022-11-22T22:58:36.990Z,24.12
2022-11-22T23:01:05.791Z,24.12
2022-11-22T23:03:33.151Z,24.11
2022-11-22T23:06:04.036Z,24.11
2022-11-22T23:08:32.171Z,24.11
2022-11-22T23:11:02.579Z,24.09
2022-11-22T23:13:29.375Z,24.08
2022-11-22T23:15:58.884Z,24.08
2022-11-22T23:18:25.860Z,24.07
2022-11-22T23:20:52.739Z,24.06
2022-11-22T23:23:19.504Z,24.06
2022-11-22T23:25:47.610Z,24.06
2022-11-22T23:28:14.409Z,24.06
2022-11-22T23:30:41.138Z,24.03
2022-11-22T23:33:07.937Z,24.03
2022-11-22T23:35:35.336Z,24.03
2022-11-22T23:38:02.178Z,24.02
2022-11-22T23:40:29.104Z,24.02
2022-11-22T23:43:00.626Z,24.01
2022-11-22T23:45:27.448Z,24.01
2022-11-22T23:47:54.246Z,24.00
2022-11-22T23:50:21.043Z,24.00
2022-11-22T23:52:47.769Z,23.98
2022-11-22T23:55:14.778Z,23.99
2022-11-22T23:57:41.507Z,23.98
